createdAt,value
2018-10-16T00:01:58.977Z,22.20
2018-10-16T00:04:28.797Z,22.63
2018-10-16T00:07:03.158Z,21.80
2018-10-16T00:09:33.096Z,22.97
2018-10-16T00:12:07.577Z,22.87
2018-10-16T00:14:37.498Z,24.90
2018-10-16T00:17:07.557Z,23.80
2018-10-16T00:19:37.236Z,24.20
2018-10-16T00:22:07.017Z,24.27
2018-10-16T00:24:36.977Z,22.53
2018-10-16T00:27:07.137Z,23.10
2018-10-16T00:29:36.798Z,22.50
2018-10-16T00:32:06.657Z,22.60
2018-10-16T00:34:37.277Z,22.87
2018-10-16T00:37:07.200Z,20.93
2018-10-16T00:39:37.162Z,22.03
2018-10-16T00:42:07.540Z,23.40
2018-10-16T00:44:37.281Z,23.87
2018-10-16T00:47:07.131Z,23.97
2018-10-16T00:49:37.241Z,24.13
2018-10-16T00:52:06.907Z,24.03
2018-10-16T00:54:36.801Z,25.63
2018-10-16T00:57:07.563Z,25.60
2018-10-16T00:59:37.559Z,24.70
2018-10-16T01:02:07.820Z,24.40
2018-10-16T01:04:38.360Z,25.77
2018-10-16T01:07:08.373Z,24.60
2018-10-16T01:09:38.080Z,23.40
2018-10-16T01:12:11.921Z,23.40
2018-10-16T01:14:41.940Z,23.13
2018-10-16T01:17:11.700Z,23.80
2018-10-16T01:19:41.662Z,23.50
2018-10-16T01:22:11.562Z,22.53
2018-10-16T01:24:42.560Z,22.90
2018-10-16T01:27:12.350Z,22.43
2018-10-16T01:29:42.423Z,21.67
2018-10-16T01:32:12.260Z,22.60
2018-10-16T01:34:42.039Z,20.73
2018-10-16T01:37:11.980Z,24.23
2018-10-16T01:39:42.020Z,22.87
2018-10-16T01:42:12.168Z,24.40
2018-10-16T01:44:42.040Z,23.73
2018-10-16T01:47:11.875Z,22.37
2018-10-16T01:49:41.591Z,23.30
2018-10-16T01:52:11.374Z,23.83
2018-10-16T01:54:41.280Z,24.63
2018-10-16T01:57:11.121Z,24.60
2018-10-16T01:59:41.079Z,24.23
2018-10-16T02:02:11.668Z,24.90
2018-10-16T02:04:41.518Z,24.07
2018-10-16T02:07:11.258Z,24.77
2018-10-16T02:09:41.338Z,25.37
2018-10-16T02:12:11.364Z,25.07
2018-10-16T02:14:41.437Z,24.70
2018-10-16T02:17:11.240Z,25.63
2018-10-16T02:19:41.159Z,24.90
2018-10-16T02:22:11.266Z,23.33
2018-10-16T02:24:41.185Z,23.40
2018-10-16T02:27:11.059Z,23.63
2018-10-16T02:29:40.957Z,24.33
2018-10-16T02:32:10.799Z,24.00
2018-10-16T02:34:40.839Z,25.23
2018-10-16T02:37:11.111Z,24.93
2018-10-16T02:39:41.443Z,25.07
2018-10-16T02:42:11.725Z,26.23
2018-10-16T02:44:41.746Z,25.97
2018-10-16T02:47:11.719Z,24.87
2018-10-16T02:49:41.879Z,23.50
2018-10-16T02:52:11.959Z,25.23
2018-10-16T02:54:42.099Z,26.37
2018-10-16T02:57:12.179Z,25.33
2018-10-16T02:59:42.099Z,24.83
2018-10-16T03:02:12.672Z,24.47
2018-10-16T03:04:42.739Z,24.67
2018-10-16T03:07:12.799Z,24.07
2018-10-16T03:09:42.800Z,23.17
2018-10-16T03:12:12.918Z,22.90
2018-10-16T03:14:43.099Z,23.37
2018-10-16T03:17:12.949Z,23.80
2018-10-16T03:19:42.885Z,23.40
2018-10-16T03:22:12.899Z,23.40
2018-10-16T03:24:42.998Z,21.53
2018-10-16T03:27:13.038Z,22.23
2018-10-16T03:29:43.199Z,22.53
2018-10-16T03:32:13.339Z,22.33
2018-10-16T03:34:43.380Z,21.80
2018-10-16T03:37:13.399Z,21.07
2018-10-16T03:39:43.579Z,20.50
2018-10-16T03:42:13.758Z,21.83
2018-10-16T03:44:44.058Z,21.87
2018-10-16T03:47:14.214Z,21.20
2018-10-16T03:49:44.118Z,21.47
2018-10-16T03:52:14.238Z,21.87
2018-10-16T03:54:44.298Z,21.73
2018-10-16T03:57:14.651Z,22.17
2018-10-16T03:59:44.721Z,22.40
2018-10-16T04:02:14.800Z,22.80
2018-10-16T04:04:44.920Z,22.33
2018-10-16T04:07:15.020Z,21.47
2018-10-16T04:09:45.100Z,21.03
2018-10-16T04:12:15.161Z,22.17
2018-10-16T04:14:45.683Z,21.07
2018-10-16T04:17:15.567Z,22.90
2018-10-16T04:19:45.381Z,22.00
2018-10-16T04:22:15.361Z,22.57
2018-10-16T04:24:45.379Z,21.37
2018-10-16T04:27:16.260Z,22.43
2018-10-16T04:29:46.140Z,21.63
2018-10-16T04:32:16.539Z,22.47
2018-10-16T04:34:46.558Z,22.00
2018-10-16T04:37:16.558Z,21.80
2018-10-16T04:39:46.718Z,21.87
2018-10-16T04:42:16.800Z,21.33
2018-10-16T04:44:46.768Z,22.07
2018-10-16T04:47:16.681Z,22.93
2018-10-16T04:49:46.646Z,22.60
2018-10-16T04:52:16.540Z,22.93
2018-10-16T04:54:46.299Z,21.53
2018-10-16T04:57:16.218Z,20.93
2018-10-16T04:59:46.078Z,22.33
2018-10-16T05:02:16.088Z,21.83
2018-10-16T05:04:45.979Z,23.10
2018-10-16T05:07:15.962Z,22.27
2018-10-16T05:09:45.959Z,22.93
2018-10-16T05:12:15.986Z,22.53
2018-10-16T05:14:45.918Z,23.30
2018-10-16T05:17:15.960Z,23.17
2018-10-16T05:19:46.000Z,23.07
2018-10-16T05:22:16.100Z,21.90
2018-10-16T05:24:46.562Z,21.97
2018-10-16T05:27:16.700Z,22.03
2018-10-16T05:29:46.640Z,21.40
2018-10-16T05:32:16.480Z,21.87
2018-10-16T05:34:46.398Z,21.87
2018-10-16T05:37:16.358Z,21.70
2018-10-16T05:39:46.658Z,21.50
2018-10-16T05:42:16.699Z,23.40
2018-10-16T05:44:46.838Z,22.60
2018-10-16T05:47:16.686Z,21.37
2018-10-16T05:49:46.719Z,21.43
2018-10-16T05:52:16.758Z,20.57
2018-10-16T05:54:46.883Z,19.77
2018-10-16T05:57:17.239Z,19.37
2018-10-16T05:59:47.320Z,18.63
2018-10-16T06:02:17.181Z,18.63
2018-10-16T06:04:47.139Z,18.70
2018-10-16T06:07:16.919Z,19.13
2018-10-16T06:09:46.880Z,18.43
2018-10-16T06:12:16.918Z,19.10
2018-10-16T06:14:46.879Z,19.90
2018-10-16T06:17:16.900Z,19.23
2018-10-16T06:19:46.820Z,17.93
2018-10-16T06:22:16.764Z,17.03
2018-10-16T06:24:46.759Z,17.43
2018-10-16T06:27:17.079Z,15.87
2018-10-16T06:29:47.367Z,15.63
2018-10-16T06:32:28.063Z,16.97
2018-10-16T06:37:59.001Z,16.43
2018-10-16T06:40:29.857Z,16.47
2018-10-16T06:43:00.000Z,18.17
2018-10-16T06:45:30.079Z,18.47
2018-10-16T06:48:04.150Z,18.10
2018-10-16T06:50:34.368Z,18.20
2018-10-16T06:53:04.711Z,19.17
2018-10-16T06:55:34.759Z,18.63
2018-10-16T06:58:05.599Z,17.33
2018-10-16T07:00:41.102Z,16.83
2018-10-16T07:03:15.341Z,16.50
2018-10-16T07:05:45.202Z,16.37
2018-10-16T07:08:15.368Z,17.73
2018-10-16T07:10:45.382Z,17.23
2018-10-16T07:13:15.502Z,16.90
2018-10-16T07:15:45.400Z,16.33
2018-10-16T07:18:15.380Z,17.13
2018-10-16T07:20:45.545Z,16.97
2018-10-16T07:23:15.499Z,17.00
2018-10-16T07:25:45.838Z,16.53
2018-10-16T07:28:16.059Z,16.47
2018-10-16T07:30:46.244Z,18.23
2018-10-16T07:33:18.543Z,16.67
2018-10-16T07:35:51.830Z,17.07
2018-10-16T07:38:23.399Z,18.43
2018-10-16T07:40:54.542Z,17.20
2018-10-16T07:43:25.250Z,16.67
2018-10-16T07:45:56.083Z,17.70
2018-10-16T07:48:28.089Z,17.33
2018-10-16T07:50:59.024Z,17.77
2018-10-16T07:53:30.702Z,17.43
2018-10-16T07:56:08.723Z,17.80
2018-10-16T07:58:40.482Z,17.47
2018-10-16T08:01:18.323Z,16.83
2018-10-16T08:03:54.939Z,17.80
2018-10-16T08:06:29.624Z,18.13
2018-10-16T08:09:06.059Z,18.23
2018-10-16T08:14:37.320Z,17.83
2018-10-16T08:23:34.238Z,18.07
2018-10-16T08:27:22.718Z,18.73
2018-10-16T08:38:14.558Z,18.80
2018-10-16T08:40:48.178Z,18.47
2018-10-16T08:43:30.898Z,18.23
2018-10-16T08:46:13.458Z,17.77
2018-10-16T08:48:54.239Z,17.93
2018-10-16T08:51:37.758Z,18.23
2018-10-16T08:54:12.798Z,18.73
2018-10-16T08:56:42.719Z,18.93
2018-10-16T08:59:21.998Z,19.37
2018-10-16T09:01:51.822Z,18.97
2018-10-16T09:04:23.161Z,20.03
2018-10-16T09:06:56.541Z,18.97
2018-10-16T09:12:04.081Z,20.37
2018-10-16T09:14:38.233Z,20.47
2018-10-16T09:17:09.021Z,21.87
2018-10-16T09:19:38.901Z,22.70
2018-10-16T09:22:09.771Z,22.80
2018-10-16T09:24:39.910Z,23.27
2018-10-16T09:27:10.842Z,24.60
2018-10-16T09:29:41.922Z,23.90
2018-10-16T09:32:12.962Z,23.40
2018-10-16T09:34:42.924Z,24.57
2018-10-16T09:37:13.106Z,23.83
2018-10-16T09:39:42.883Z,24.20
2018-10-16T09:42:14.183Z,24.23
2018-10-16T09:44:44.082Z,23.27
2018-10-16T09:47:14.022Z,25.67
2018-10-16T09:49:45.091Z,23.30
2018-10-16T09:52:15.119Z,21.50
2018-10-16T09:54:46.400Z,24.10
2018-10-16T09:57:16.319Z,23.80
2018-10-16T09:59:46.298Z,24.53
2018-10-16T10:02:16.280Z,23.57
2018-10-16T10:04:46.242Z,23.00
2018-10-16T10:07:16.322Z,23.03
2018-10-16T10:09:46.261Z,21.87
2018-10-16T10:12:16.481Z,21.83
2018-10-16T10:14:46.560Z,22.03
2018-10-16T10:17:16.620Z,21.80
2018-10-16T10:19:46.871Z,21.60
2018-10-16T10:22:16.780Z,21.80
2018-10-16T10:24:46.860Z,21.27
2018-10-16T10:27:16.680Z,22.57
2018-10-16T10:29:46.769Z,20.83
2018-10-16T10:32:16.660Z,19.93
2018-10-16T10:34:48.221Z,21.20
2018-10-16T10:37:18.568Z,20.70
2018-10-16T10:39:48.399Z,19.77
2018-10-16T10:42:18.399Z,21.03
2018-10-16T10:44:48.480Z,20.77
2018-10-16T10:47:18.240Z,20.33
2018-10-16T10:49:48.033Z,21.10
2018-10-16T10:52:17.939Z,21.23
2018-10-16T10:54:47.820Z,20.40
2018-10-16T10:57:17.765Z,19.37
2018-10-16T10:59:48.000Z,21.73
2018-10-16T11:02:18.718Z,19.83
2018-10-16T11:04:48.799Z,21.57
2018-10-16T11:07:18.679Z,20.63
2018-10-16T11:09:49.818Z,21.20
2018-10-16T11:12:20.319Z,21.17
2018-10-16T11:14:50.448Z,21.33
2018-10-16T11:17:20.519Z,22.03
2018-10-16T11:19:50.520Z,21.80
2018-10-16T11:22:20.639Z,21.77
2018-10-16T11:24:50.720Z,21.37
2018-10-16T11:27:21.098Z,21.27
2018-10-16T11:29:51.161Z,20.97
2018-10-16T11:32:22.879Z,21.70
2018-10-16T11:34:52.818Z,21.80
2018-10-16T11:37:22.819Z,21.60
2018-10-16T11:39:52.740Z,20.33
2018-10-16T11:42:23.201Z,21.33
2018-10-16T11:44:53.699Z,22.27
2018-10-16T11:47:23.981Z,21.73
2018-10-16T11:49:54.062Z,22.60
2018-10-16T11:52:25.159Z,22.13
2018-10-16T11:54:55.758Z,21.90
2018-10-16T11:57:25.923Z,22.83
2018-10-16T11:59:55.959Z,21.83
2018-10-16T12:02:25.974Z,21.87
2018-10-16T12:04:56.124Z,21.10
2018-10-16T12:07:26.186Z,22.10
2018-10-16T12:09:56.465Z,21.73
2018-10-16T12:12:27.344Z,22.23
2018-10-16T12:14:57.544Z,22.37
2018-10-16T12:19:33.870Z,23.43
2018-10-16T12:22:04.125Z,21.50
2018-10-16T12:24:34.724Z,21.10
2018-10-16T12:27:05.216Z,22.87
2018-10-16T12:29:36.362Z,22.27
2018-10-16T12:32:07.916Z,21.80
2018-10-16T12:34:38.085Z,23.03
2018-10-16T12:37:09.027Z,23.73
2018-10-16T12:39:39.295Z,22.03
2018-10-16T12:42:09.783Z,21.80
2018-10-16T12:44:40.141Z,20.90
2018-10-16T12:47:10.959Z,22.17
2018-10-16T12:49:41.282Z,21.70
2018-10-16T12:52:11.360Z,21.60
2018-10-16T12:54:41.441Z,21.87
2018-10-16T12:57:11.488Z,21.60
2018-10-16T12:59:41.380Z,21.30
2018-10-16T13:02:12.580Z,22.27
2018-10-16T13:04:43.046Z,23.00
2018-10-16T13:07:22.077Z,22.27
2018-10-16T13:09:56.781Z,22.33
2018-10-16T13:12:32.860Z,23.50
2018-10-16T13:15:02.663Z,21.73
2018-10-16T13:17:37.440Z,21.73
2018-10-16T13:20:08.215Z,21.03
2018-10-16T13:25:14.078Z,21.23
2018-10-16T13:27:44.520Z,20.47
2018-10-16T13:30:17.440Z,22.70
2018-10-16T13:32:48.378Z,22.70
2018-10-16T13:35:19.807Z,22.13
2018-10-16T13:37:50.179Z,22.83
2018-10-16T13:40:20.239Z,20.57
2018-10-16T13:42:50.114Z,22.77
2018-10-16T13:45:20.140Z,22.80
2018-10-16T13:47:51.219Z,24.10
2018-10-16T13:50:21.939Z,22.93
2018-10-16T13:52:53.178Z,23.33
2018-10-16T13:55:23.878Z,22.80
2018-10-16T13:57:54.001Z,22.70
2018-10-16T14:00:24.615Z,22.67
2018-10-16T14:02:55.860Z,23.40
2018-10-16T14:05:25.980Z,22.50
2018-10-16T14:07:56.471Z,23.00
2018-10-16T14:10:26.704Z,23.07
2018-10-16T14:12:57.065Z,23.23
2018-10-16T14:15:32.543Z,23.20
2018-10-16T14:18:02.343Z,22.83
2018-10-16T14:20:32.465Z,23.30
2018-10-16T14:23:02.663Z,23.90
2018-10-16T14:25:32.584Z,22.67
2018-10-16T14:28:07.294Z,22.40
2018-10-16T14:30:37.264Z,24.57
2018-10-16T14:33:08.304Z,22.47
2018-10-16T14:35:38.393Z,23.77
2018-10-16T14:38:08.326Z,25.70
2018-10-16T14:40:39.135Z,25.27
2018-10-16T14:43:09.043Z,26.07
2018-10-16T14:45:39.304Z,24.17
2018-10-16T14:48:10.713Z,24.87
2018-10-16T14:50:41.806Z,24.50
2018-10-16T14:53:12.026Z,24.43
2018-10-16T14:55:42.463Z,24.33
2018-10-16T14:58:12.663Z,24.43
2018-10-16T15:00:42.621Z,24.10
2018-10-16T15:03:12.782Z,25.23
2018-10-16T15:05:42.901Z,26.00
2018-10-16T15:08:13.686Z,25.00
2018-10-16T15:10:43.981Z,24.90
2018-10-16T15:13:14.102Z,24.73
2018-10-16T15:15:44.160Z,23.80
2018-10-16T15:18:13.800Z,24.03
2018-10-16T15:20:44.000Z,24.33
2018-10-16T15:23:13.940Z,24.30
2018-10-16T15:25:44.342Z,24.83
2018-10-16T15:28:14.703Z,24.80
2018-10-16T15:30:44.741Z,25.03
2018-10-16T15:33:15.322Z,34.03
2018-10-16T15:35:45.269Z,34.17
2018-10-16T15:38:19.740Z,28.20
2018-10-16T15:40:49.702Z,26.90
2018-10-16T15:43:19.880Z,26.47
2018-10-16T15:45:49.881Z,27.37
2018-10-16T15:48:19.601Z,26.87
2018-10-16T15:50:49.809Z,30.73
2018-10-16T15:53:19.801Z,29.00
2018-10-16T15:55:49.641Z,28.10
2018-10-16T15:58:19.707Z,27.83
2018-10-16T16:00:50.008Z,27.53
2018-10-16T16:03:20.249Z,27.83
2018-10-16T16:05:50.248Z,29.10
2018-10-16T16:08:20.328Z,28.00
2018-10-16T16:10:50.488Z,29.17
2018-10-16T16:13:22.090Z,28.83
2018-10-16T16:15:51.873Z,28.03
2018-10-16T16:18:26.825Z,28.93
2018-10-16T16:20:58.089Z,28.73
2018-10-16T16:23:28.140Z,30.63
2018-10-16T16:25:59.616Z,28.83
2018-10-16T16:28:33.960Z,31.17
2018-10-16T16:31:03.863Z,30.47
2018-10-16T16:33:33.920Z,30.83
2018-10-16T16:36:03.915Z,31.50
2018-10-16T16:38:38.100Z,31.73
2018-10-16T16:41:08.202Z,31.33
2018-10-16T16:46:12.125Z,32.83
2018-10-16T16:48:42.079Z,34.30
2018-10-16T16:51:12.722Z,32.57
2018-10-16T16:53:42.739Z,33.17
2018-10-16T16:56:12.598Z,33.17
2018-10-16T16:58:42.678Z,32.97
2018-10-16T17:01:12.818Z,32.63
2018-10-16T17:03:42.853Z,31.63
2018-10-16T17:06:17.114Z,33.07
2018-10-16T17:08:47.206Z,32.57
2018-10-16T17:11:17.288Z,34.13
2018-10-16T17:13:50.282Z,34.80
2018-10-16T17:16:20.182Z,36.00
2018-10-16T17:18:49.963Z,35.40
2018-10-16T17:21:20.180Z,33.90
2018-10-16T17:23:49.862Z,34.47
2018-10-16T17:26:20.284Z,35.80
2018-10-16T17:28:50.062Z,37.70
2018-10-16T17:31:22.085Z,36.53
2018-10-16T17:33:51.964Z,38.40
2018-10-16T17:36:21.982Z,37.90
2018-10-16T17:38:51.945Z,41.53
2018-10-16T17:41:22.720Z,41.27
2018-10-16T17:43:53.081Z,35.47
2018-10-16T17:46:24.143Z,40.27
2018-10-16T17:48:54.220Z,42.93
2018-10-16T17:51:24.321Z,42.43
2018-10-16T17:53:55.541Z,40.67
2018-10-16T17:56:30.661Z,40.90
2018-10-16T17:59:01.201Z,42.73
2018-10-16T18:04:07.799Z,43.40
2018-10-16T18:06:37.881Z,41.97
2018-10-16T18:09:08.668Z,41.87
2018-10-16T18:11:39.066Z,41.90
2018-10-16T18:14:09.524Z,44.63
2018-10-16T18:16:39.359Z,44.43
2018-10-16T18:19:10.509Z,41.80
2018-10-16T18:21:40.608Z,38.83
2018-10-16T18:24:10.728Z,42.77
2018-10-16T18:26:41.421Z,42.13
2018-10-16T18:31:39.986Z,44.43
2018-10-16T18:34:09.886Z,42.10
2018-10-16T18:36:43.901Z,44.37
2018-10-16T18:39:25.558Z,42.40
2018-10-16T18:41:55.424Z,45.70
2018-10-16T18:44:25.581Z,44.50
2018-10-16T18:46:55.526Z,44.27
2018-10-16T18:49:25.282Z,43.90
2018-10-16T18:51:55.342Z,44.20
2018-10-16T18:54:29.524Z,45.67
2018-10-16T18:56:59.461Z,45.43
2018-10-16T18:59:29.684Z,46.17
2018-10-16T19:01:59.724Z,46.20
2018-10-16T19:04:29.700Z,47.67
2018-10-16T19:06:59.566Z,45.67
2018-10-16T19:09:29.700Z,46.77
2018-10-16T19:11:59.599Z,49.00
2018-10-16T19:14:29.900Z,49.17
2018-10-16T19:16:59.665Z,47.57
2018-10-16T19:19:29.506Z,48.13
2018-10-16T19:21:59.366Z,48.13
2018-10-16T19:24:29.284Z,47.43
2018-10-16T19:26:59.122Z,47.93
2018-10-16T19:29:28.906Z,48.70
2018-10-16T19:32:03.044Z,50.30
2018-10-16T19:34:33.487Z,49.10
2018-10-16T19:37:03.509Z,50.30
2018-10-16T19:39:33.468Z,48.20
2018-10-16T19:42:03.268Z,49.03
2018-10-16T19:44:33.129Z,46.87
2018-10-16T19:47:03.114Z,47.67
2018-10-16T19:49:33.202Z,49.97
2018-10-16T19:52:03.047Z,49.47
2018-10-16T19:54:34.451Z,48.87
2018-10-16T19:57:04.441Z,51.87
2018-10-16T19:59:34.506Z,49.23
2018-10-16T20:02:04.660Z,47.93
2018-10-16T20:04:34.509Z,50.50
2018-10-16T20:07:04.923Z,47.87
2018-10-16T20:09:34.747Z,49.63
2018-10-16T20:12:04.767Z,49.07
2018-10-16T20:14:34.448Z,47.33
2018-10-16T20:17:04.490Z,45.77
2018-10-16T20:19:34.378Z,46.60
2018-10-16T20:22:04.244Z,47.80
2018-10-16T20:24:34.349Z,48.60
2018-10-16T20:27:04.369Z,51.57
2018-10-16T20:29:34.250Z,56.03
2018-10-16T20:32:04.269Z,53.00
2018-10-16T20:34:34.248Z,53.83
2018-10-16T20:37:04.130Z,56.20
2018-10-16T20:39:33.909Z,55.77
2018-10-16T20:42:04.064Z,56.60
2018-10-16T20:44:34.037Z,57.00
2018-10-16T20:47:04.008Z,54.70
2018-10-16T20:49:34.249Z,55.57
2018-10-16T20:52:04.210Z,57.27
2018-10-16T20:54:34.148Z,57.77
2018-10-16T20:57:04.051Z,53.23
2018-10-16T20:59:33.931Z,57.20
2018-10-16T21:02:03.800Z,55.47
2018-10-16T21:04:34.155Z,55.80
2018-10-16T21:07:04.419Z,54.37
2018-10-16T21:09:33.919Z,55.37
2018-10-16T21:12:03.918Z,56.00
2018-10-16T21:14:33.859Z,57.20
2018-10-16T21:17:03.819Z,61.83
2018-10-16T21:19:33.886Z,60.63
2018-10-16T21:22:03.940Z,59.43
2018-10-16T21:24:34.119Z,58.23
2018-10-16T21:27:13.298Z,56.53
2018-10-16T21:29:44.623Z,57.77
2018-10-16T21:32:14.560Z,56.73
2018-10-16T21:34:44.267Z,57.60
2018-10-16T21:37:13.608Z,55.83
2018-10-16T21:39:43.387Z,56.03
2018-10-16T21:42:13.527Z,56.90
2018-10-16T21:44:43.775Z,57.60
2018-10-16T21:47:14.124Z,55.27
2018-10-16T21:49:44.132Z,56.87
2018-10-16T21:52:14.107Z,50.87
2018-10-16T21:54:43.909Z,55.67
2018-10-16T21:57:13.990Z,54.87
2018-10-16T21:59:48.291Z,55.90
2018-10-16T22:02:54.734Z,54.03
2018-10-16T22:05:25.607Z,52.33
2018-10-16T22:07:56.930Z,51.70
2018-10-16T22:10:27.238Z,51.67
2018-10-16T22:13:01.968Z,50.53
2018-10-16T22:15:31.998Z,50.37
2018-10-16T22:18:03.359Z,52.60
2018-10-16T22:20:33.438Z,53.53
2018-10-16T22:23:03.395Z,53.40
2018-10-16T22:25:33.198Z,55.33
2018-10-16T22:28:03.118Z,53.53
2018-10-16T22:30:38.638Z,55.00
2018-10-16T22:33:08.418Z,57.03
2018-10-16T22:35:38.279Z,61.60
2018-10-16T22:38:09.618Z,63.43
2018-10-16T22:40:41.119Z,64.80
2018-10-16T22:43:11.232Z,66.43
2018-10-16T22:45:41.498Z,69.00
2018-10-16T22:48:11.318Z,66.90
2018-10-16T22:50:42.378Z,68.30
2018-10-16T22:53:12.501Z,64.10
2018-10-16T22:55:42.581Z,58.67
2018-10-16T22:58:12.638Z,52.57
2018-10-16T23:00:43.018Z,53.70
2018-10-16T23:03:12.798Z,53.20
2018-10-16T23:05:42.980Z,50.33
2018-10-16T23:08:12.958Z,52.40
2018-10-16T23:10:43.298Z,53.37
2018-10-16T23:13:13.475Z,58.40
2018-10-16T23:15:43.279Z,61.47
2018-10-16T23:18:13.278Z,59.67
2018-10-16T23:20:43.303Z,60.23
2018-10-16T23:23:13.577Z,64.20
2018-10-16T23:25:43.428Z,60.80
2018-10-16T23:28:13.581Z,63.60
2018-10-16T23:30:43.679Z,64.37
2018-10-16T23:33:14.038Z,66.23
2018-10-16T23:35:44.099Z,65.37
2018-10-16T23:38:14.158Z,68.43
2018-10-16T23:40:44.038Z,69.83
2018-10-16T23:43:14.201Z,67.27
2018-10-16T23:45:44.074Z,72.07
2018-10-16T23:48:13.920Z,72.60
2018-10-16T23:50:43.621Z,70.67
2018-10-16T23:53:13.436Z,67.77
2018-10-16T23:55:43.458Z,65.47
2018-10-16T23:58:13.278Z,69.20
